createdAt,value
2018-04-02T00:00:45.136Z,10.30
2018-04-02T00:01:45.121Z,10.70
2018-04-02T00:02:45.142Z,10.10
2018-04-02T00:03:45.155Z,10.80
2018-04-02T00:04:45.173Z,10.50
2018-04-02T00:05:45.191Z,11.20
2018-04-02T00:06:45.219Z,9.80
2018-04-02T00:07:45.225Z,10.30
2018-04-02T00:08:45.249Z,10.60
2018-04-02T00:09:45.313Z,11.40
2018-04-02T00:10:45.289Z,11.40
2018-04-02T00:11:45.308Z,10.50
2018-04-02T00:12:45.316Z,9.80
2018-04-02T00:13:45.334Z,9.30
2018-04-02T00:14:45.354Z,10.20
2018-04-02T00:15:45.417Z,11.20
2018-04-02T00:16:45.397Z,10.10
2018-04-02T00:17:45.403Z,10.80
2018-04-02T00:18:45.422Z,11.00
2018-04-02T00:19:45.444Z,10.60
2018-04-02T00:20:45.459Z,9.50
2018-04-02T00:21:45.527Z,9.90
2018-04-02T00:22:45.499Z,10.30
2018-04-02T00:23:45.523Z,10.70
2018-04-02T00:24:45.535Z,10.20
2018-04-02T00:25:45.559Z,10.00
2018-04-02T00:26:45.568Z,10.90
2018-04-02T00:27:45.644Z,10.80
2018-04-02T00:28:45.600Z,10.10
2018-04-02T00:29:45.620Z,9.60
2018-04-02T00:30:45.637Z,10.80
2018-04-02T00:31:45.663Z,10.40
2018-04-02T00:32:45.675Z,9.70
2018-04-02T00:33:45.746Z,10.90
2018-04-02T00:34:45.722Z,9.40
2018-04-02T00:35:45.730Z,9.30
2018-04-02T00:36:45.748Z,9.90
2018-04-02T00:37:45.768Z,10.80
2018-04-02T00:38:45.783Z,10.70
2018-04-02T00:39:45.870Z,9.90
2018-04-02T00:40:45.824Z,9.20
2018-04-02T00:41:45.840Z,9.90
2018-04-02T00:42:45.858Z,9.50
2018-04-02T00:43:45.877Z,10.00
2018-04-02T00:44:45.901Z,10.00
2018-04-02T00:45:45.914Z,11.30
2018-04-02T00:46:45.930Z,9.60
2018-04-02T00:47:45.946Z,9.30
2018-04-02T00:48:45.969Z,9.10
2018-04-02T00:49:46.009Z,8.90
2018-04-02T00:50:46.004Z,9.00
2018-04-02T00:51:46.029Z,8.80
2018-04-02T00:52:46.042Z,9.00
2018-04-02T00:53:46.058Z,8.60
2018-04-02T00:54:46.077Z,10.10
2018-04-02T00:55:46.103Z,10.10
2018-04-02T00:56:46.122Z,8.20
2018-04-02T00:57:46.182Z,8.80
2018-04-02T00:58:46.151Z,9.00
2018-04-02T00:59:46.166Z,9.70
2018-04-02T01:00:46.193Z,9.80
2018-04-02T01:01:46.276Z,9.10
2018-04-02T01:02:46.222Z,9.30
2018-04-02T01:03:46.242Z,10.20
2018-04-02T01:04:46.262Z,10.10
2018-04-02T01:05:46.278Z,10.50
2018-04-02T01:06:46.293Z,9.80
2018-04-02T01:07:46.363Z,9.60
2018-04-02T01:08:46.332Z,9.30
2018-04-02T01:09:46.416Z,9.90
2018-04-02T01:10:46.365Z,9.80
2018-04-02T01:11:46.386Z,9.20
2018-04-02T01:12:46.404Z,10.10
2018-04-02T01:13:46.458Z,9.50
2018-04-02T01:14:46.442Z,9.90
2018-04-02T01:15:46.509Z,9.60
2018-04-02T01:16:46.482Z,9.00
2018-04-02T01:17:46.498Z,8.40
2018-04-02T01:18:46.514Z,8.90
2018-04-02T01:19:46.541Z,8.20
2018-04-02T01:20:46.552Z,9.00
2018-04-02T01:21:46.619Z,7.80
2018-04-02T01:22:46.597Z,8.90
2018-04-02T01:23:46.613Z,9.20
2018-04-02T01:24:46.621Z,8.30
2018-04-02T01:25:46.643Z,8.50
2018-04-02T01:26:46.658Z,7.30
2018-04-02T01:27:46.727Z,8.30
2018-04-02T01:28:46.697Z,7.60
2018-04-02T01:29:46.713Z,7.90
2018-04-02T01:30:46.733Z,8.80
2018-04-02T01:31:46.759Z,8.60
2018-04-02T01:32:46.822Z,8.90
2018-04-02T01:33:46.785Z,8.70
2018-04-02T01:34:46.803Z,9.30
2018-04-02T01:35:46.822Z,9.10
2018-04-02T01:36:46.840Z,8.50
2018-04-02T01:37:46.920Z,9.00
2018-04-02T01:38:46.936Z,8.80
2018-04-02T01:39:46.893Z,9.40
2018-04-02T01:40:46.913Z,8.70
2018-04-02T01:41:46.931Z,9.00
2018-04-02T01:42:46.953Z,9.70
2018-04-02T01:43:46.978Z,9.90
2018-04-02T01:44:47.035Z,9.30
2018-04-02T01:45:47.002Z,9.20
2018-04-02T01:46:47.018Z,9.00
2018-04-02T01:47:47.049Z,10.00
2018-04-02T01:48:47.054Z,9.70
2018-04-02T01:49:47.086Z,10.30
2018-04-02T01:50:47.194Z,9.50
2018-04-02T01:51:47.119Z,9.00
2018-04-02T01:52:47.131Z,9.60
2018-04-02T01:53:47.147Z,9.80
2018-04-02T01:54:47.165Z,9.60
2018-04-02T01:55:47.181Z,9.20
2018-04-02T01:56:47.226Z,9.90
2018-04-02T01:57:47.228Z,9.50
2018-04-02T01:58:47.235Z,9.50
2018-04-02T01:59:47.252Z,10.10
2018-04-02T02:00:47.272Z,10.40
2018-04-02T02:01:47.337Z,9.80
2018-04-02T02:02:47.445Z,10.40
2018-04-02T02:03:47.327Z,11.20
2018-04-02T02:04:47.341Z,10.00
2018-04-02T02:05:47.374Z,10.50
2018-04-02T02:06:47.382Z,10.40
2018-04-02T02:07:47.409Z,10.60
2018-04-02T02:08:47.504Z,11.30
2018-04-02T02:09:47.435Z,10.20
2018-04-02T02:10:47.450Z,11.20
2018-04-02T02:11:47.467Z,10.50
2018-04-02T02:12:47.487Z,11.30
2018-04-02T02:13:47.507Z,10.90
2018-04-02T02:14:47.574Z,10.60
2018-04-02T02:15:47.551Z,11.20
2018-04-02T02:16:47.562Z,10.80
2018-04-02T02:17:47.588Z,10.60
2018-04-02T02:18:47.593Z,11.00
2018-04-02T02:19:47.612Z,12.10
2018-04-02T02:20:47.709Z,11.30
2018-04-02T02:21:47.658Z,11.60
2018-04-02T02:22:47.666Z,11.30
2018-04-02T02:23:47.695Z,10.60
2018-04-02T02:24:47.703Z,10.30
2018-04-02T02:25:47.728Z,9.80
2018-04-02T02:26:47.847Z,10.90
2018-04-02T02:27:47.759Z,11.70
2018-04-02T02:28:47.775Z,11.20
2018-04-02T02:29:47.793Z,11.10
2018-04-02T02:30:47.819Z,10.10
2018-04-02T02:31:47.829Z,10.70
2018-04-02T02:32:47.930Z,11.30
2018-04-02T02:33:47.865Z,10.30
2018-04-02T02:34:47.885Z,9.50
2018-04-02T02:35:47.910Z,9.80
2018-04-02T02:36:47.921Z,9.60
2018-04-02T02:37:47.997Z,10.60
2018-04-02T02:38:48.017Z,11.10
2018-04-02T02:39:47.969Z,11.70
2018-04-02T02:40:47.993Z,11.10
2018-04-02T02:41:48.006Z,11.00
2018-04-02T02:42:48.025Z,11.00
2018-04-02T02:43:48.092Z,11.70
2018-04-02T02:44:48.121Z,11.00
2018-04-02T02:45:48.080Z,10.70
2018-04-02T02:46:48.098Z,9.70
2018-04-02T02:47:48.115Z,11.00
2018-04-02T02:48:48.131Z,10.80
2018-04-02T02:49:48.160Z,10.60
2018-04-02T02:50:48.175Z,9.90
2018-04-02T02:51:48.196Z,10.20
2018-04-02T02:52:48.205Z,10.00
2018-04-02T02:53:48.232Z,10.20
2018-04-02T02:54:48.241Z,10.10
2018-04-02T02:55:48.312Z,9.60
2018-04-02T02:56:48.275Z,9.80
2018-04-02T02:57:48.295Z,10.20
2018-04-02T02:58:48.319Z,9.90
2018-04-02T02:59:48.328Z,9.00
2018-04-02T03:00:48.349Z,8.70
2018-04-02T03:02:56.105Z,10.00
2018-04-02T03:03:48.400Z,9.60
2018-04-02T03:04:48.414Z,10.40
2018-04-02T03:05:48.438Z,10.30
2018-04-02T03:06:48.466Z,10.50
2018-04-02T03:07:48.473Z,8.80
2018-04-02T03:08:52.048Z,9.30
2018-04-02T03:09:48.514Z,10.20
2018-04-02T03:10:48.522Z,10.30
2018-04-02T03:11:48.550Z,10.30
2018-04-02T03:12:48.561Z,10.00
2018-04-02T03:13:48.579Z,11.00
2018-04-02T03:14:52.051Z,10.80
2018-04-02T03:15:48.612Z,9.80
2018-04-02T03:16:48.631Z,10.60
2018-04-02T03:17:48.649Z,10.00
2018-04-02T03:18:48.673Z,11.10
2018-04-02T03:19:48.684Z,10.40
2018-04-02T03:20:52.059Z,11.00
2018-04-02T03:21:48.728Z,10.30
2018-04-02T03:22:48.747Z,10.90
2018-04-02T03:23:48.754Z,9.70
2018-04-02T03:24:48.776Z,8.70
2018-04-02T03:25:48.794Z,9.40
2018-04-02T03:26:52.073Z,9.60
2018-04-02T03:27:48.825Z,11.30
2018-04-02T03:28:48.846Z,10.40
2018-04-02T03:29:48.870Z,9.40
2018-04-02T03:30:48.882Z,9.80
2018-04-02T03:31:48.900Z,10.10
2018-04-02T03:32:52.072Z,10.10
2018-04-02T03:33:48.944Z,10.30
2018-04-02T03:34:48.954Z,10.30
2018-04-02T03:35:48.973Z,9.80
2018-04-02T03:36:48.989Z,10.50
2018-04-02T03:37:49.013Z,9.40
2018-04-02T03:38:52.081Z,9.70
2018-04-02T03:39:49.085Z,10.00
2018-04-02T03:40:49.066Z,8.90
2018-04-02T03:41:49.080Z,8.30
2018-04-02T03:42:49.092Z,8.10
2018-04-02T03:43:53.121Z,8.80
2018-04-02T03:44:49.129Z,8.60
2018-04-02T03:45:49.175Z,8.80
2018-04-02T03:46:49.165Z,9.60
2018-04-02T03:47:49.183Z,9.10
2018-04-02T03:48:49.213Z,9.60
2018-04-02T03:49:52.275Z,8.90
2018-04-02T03:50:49.237Z,8.80
2018-04-02T03:51:49.274Z,8.80
2018-04-02T03:52:49.276Z,9.80
2018-04-02T03:53:49.291Z,9.00
2018-04-02T03:54:53.327Z,9.60
2018-04-02T03:55:49.337Z,9.30
2018-04-02T03:56:49.346Z,9.60
2018-04-02T03:57:49.367Z,9.00
2018-04-02T03:58:49.384Z,9.10
2018-04-02T03:59:49.398Z,9.50
2018-04-02T04:00:53.326Z,9.00
2018-04-02T04:01:49.436Z,9.30
2018-04-02T04:02:49.453Z,9.00
2018-04-02T04:03:49.469Z,9.20
2018-04-02T04:04:49.489Z,8.20
2018-04-02T04:05:49.508Z,9.60
2018-04-02T04:06:53.331Z,10.00
2018-04-02T04:07:49.552Z,8.60
2018-04-02T04:08:49.562Z,8.30
2018-04-02T04:09:49.580Z,8.80
2018-04-02T04:10:49.597Z,9.30
2018-04-02T04:11:49.613Z,9.00
2018-04-02T04:12:53.337Z,8.60
2018-04-02T04:13:49.665Z,9.10
2018-04-02T04:14:49.680Z,8.30
2018-04-02T04:15:49.686Z,8.70
2018-04-02T04:16:49.704Z,9.50
2018-04-02T04:17:49.727Z,9.20
2018-04-02T04:18:53.346Z,9.40
2018-04-02T04:19:49.756Z,8.60
2018-04-02T04:20:49.786Z,8.80
2018-04-02T04:21:49.793Z,9.90
2018-04-02T04:22:49.812Z,9.40
2018-04-02T04:23:49.828Z,9.90
2018-04-02T04:24:53.404Z,9.90
2018-04-02T04:25:49.863Z,10.20
2018-04-02T04:26:49.884Z,10.00
2018-04-02T04:27:49.902Z,9.10
2018-04-02T04:28:49.921Z,9.60
2018-04-02T04:29:49.937Z,9.70
2018-04-02T04:30:53.411Z,10.30
2018-04-02T04:31:49.973Z,10.60
2018-04-02T04:32:49.999Z,10.40
2018-04-02T04:33:50.008Z,9.60
2018-04-02T04:34:50.086Z,10.40
2018-04-02T04:35:50.045Z,10.00
2018-04-02T04:36:53.421Z,10.20
2018-04-02T04:37:50.081Z,9.80
2018-04-02T04:38:50.099Z,8.90
2018-04-02T04:39:50.123Z,9.10
2018-04-02T04:40:50.135Z,9.80
2018-04-02T04:41:50.153Z,8.90
2018-04-02T04:42:53.428Z,8.60
2018-04-02T04:43:50.188Z,8.00
2018-04-02T04:44:50.213Z,9.10
2018-04-02T04:45:50.235Z,8.70
2018-04-02T04:46:50.307Z,7.90
2018-04-02T04:47:50.262Z,8.00
2018-04-02T04:48:53.447Z,8.80
2018-04-02T04:49:50.294Z,8.30
2018-04-02T04:50:50.323Z,7.90
2018-04-02T04:51:50.333Z,8.50
2018-04-02T04:52:50.359Z,8.20
2018-04-02T04:53:50.369Z,8.90
2018-04-02T04:54:53.438Z,8.40
2018-04-02T04:55:50.402Z,8.70
2018-04-02T04:56:50.418Z,7.80
2018-04-02T04:57:50.439Z,8.10
2018-04-02T04:58:50.457Z,8.40
2018-04-02T04:59:54.439Z,8.30
2018-04-02T05:00:50.498Z,8.10
2018-04-02T05:01:50.516Z,7.40
2018-04-02T05:02:50.535Z,8.20
2018-04-02T05:03:50.543Z,7.80
2018-04-02T05:04:50.567Z,7.30
2018-04-02T05:05:54.442Z,8.30
2018-04-02T05:06:50.612Z,8.30
2018-04-02T05:07:50.627Z,8.10
2018-04-02T05:08:50.641Z,7.40
2018-04-02T05:09:50.657Z,7.70
2018-04-02T05:10:50.681Z,7.80
2018-04-02T05:11:54.445Z,8.00
2018-04-02T05:12:50.717Z,7.60
2018-04-02T05:13:50.734Z,7.50
2018-04-02T05:14:50.744Z,8.10
2018-04-02T05:15:50.760Z,8.00
2018-04-02T05:16:50.788Z,7.60
2018-04-02T05:17:54.504Z,7.50
2018-04-02T05:18:50.822Z,7.00
2018-04-02T05:19:50.830Z,7.90
2018-04-02T05:20:50.848Z,8.20
2018-04-02T05:21:50.873Z,8.10
2018-04-02T05:22:50.899Z,8.20
2018-04-02T05:23:54.459Z,7.90
2018-04-02T05:24:50.922Z,7.70
2018-04-02T05:25:50.940Z,7.60
2018-04-02T05:26:50.955Z,7.90
2018-04-02T05:27:50.975Z,7.90
2018-04-02T05:28:51.003Z,8.30
2018-04-02T05:29:54.519Z,8.00
2018-04-02T05:30:51.040Z,8.30
2018-04-02T05:31:51.046Z,8.10
2018-04-02T05:32:51.073Z,7.70
2018-04-02T05:33:51.087Z,8.40
2018-04-02T05:34:51.097Z,7.90
2018-04-02T05:35:54.543Z,8.50
2018-04-02T05:36:51.145Z,8.70
2018-04-02T05:37:51.156Z,8.50
2018-04-02T05:38:51.185Z,8.90
2018-04-02T05:39:51.189Z,8.40
2018-04-02T05:40:51.215Z,7.90
2018-04-02T05:41:54.533Z,7.60
2018-04-02T05:42:51.252Z,7.60
2018-04-02T05:43:51.261Z,8.10
2018-04-02T05:44:51.280Z,8.30
2018-04-02T05:45:51.299Z,7.40
2018-04-02T05:46:51.322Z,7.90
2018-04-02T05:47:54.637Z,8.20
2018-04-02T05:48:51.350Z,7.50
2018-04-02T05:49:51.376Z,9.20
2018-04-02T05:50:51.387Z,8.30
2018-04-02T05:51:51.407Z,8.30
2018-04-02T05:52:51.430Z,8.40
2018-04-02T05:53:54.649Z,7.90
2018-04-02T05:54:51.468Z,8.40
2018-04-02T05:55:51.486Z,8.60
2018-04-02T05:56:51.503Z,9.10
2018-04-02T05:57:51.513Z,9.10
2018-04-02T05:58:51.537Z,8.70
2018-04-02T05:59:54.652Z,8.80
2018-04-02T06:00:51.564Z,8.90
2018-04-02T06:01:51.583Z,8.70
2018-04-02T06:02:51.602Z,8.90
2018-04-02T06:03:51.617Z,8.00
2018-04-02T06:04:55.649Z,8.30
2018-04-02T06:05:51.664Z,8.50
2018-04-02T06:06:51.673Z,8.30
2018-04-02T06:07:51.692Z,8.30
2018-04-02T06:08:51.708Z,9.50
2018-04-02T06:09:51.724Z,8.40
2018-04-02T06:10:55.650Z,9.70
2018-04-02T06:11:51.766Z,9.20
2018-04-02T06:12:51.799Z,8.90
2018-04-02T06:13:51.801Z,8.80
2018-04-02T06:14:51.822Z,8.60
2018-04-02T06:15:51.834Z,8.20
2018-04-02T06:16:55.661Z,8.60
2018-04-02T06:17:51.877Z,8.20
2018-04-02T06:18:51.960Z,9.70
2018-04-02T06:19:51.903Z,9.00
2018-04-02T06:20:51.920Z,7.90
2018-04-02T06:21:51.946Z,8.90
2018-04-02T06:22:55.668Z,8.70
2018-04-02T06:23:51.975Z,7.90
2018-04-02T06:24:52.001Z,9.30
2018-04-02T06:25:52.011Z,8.60
2018-04-02T06:26:52.036Z,8.30
2018-04-02T06:27:52.052Z,8.50
2018-04-02T06:28:55.670Z,9.10
2018-04-02T06:29:52.082Z,10.50
2018-04-02T06:30:52.099Z,9.30
2018-04-02T06:31:52.116Z,9.30
2018-04-02T06:32:52.133Z,9.60
2018-04-02T06:33:52.162Z,9.30
2018-04-02T06:34:55.683Z,10.10
2018-04-02T06:35:52.186Z,10.30
2018-04-02T06:36:52.207Z,9.00
2018-04-02T06:37:52.223Z,10.10
2018-04-02T06:38:52.254Z,10.60
2018-04-02T06:39:52.256Z,10.20
2018-04-02T06:40:55.782Z,10.10
2018-04-02T06:41:52.293Z,10.70
2018-04-02T06:42:52.311Z,10.40
2018-04-02T06:43:52.375Z,10.60
2018-04-02T06:44:52.346Z,10.80
2018-04-02T06:45:52.363Z,10.40
2018-04-02T06:46:55.938Z,9.70
2018-04-02T06:47:52.406Z,10.50
2018-04-02T06:48:52.421Z,10.40
2018-04-02T06:49:52.442Z,10.50
2018-04-02T06:50:52.455Z,9.50
2018-04-02T06:51:52.472Z,10.40
2018-04-02T06:52:56.054Z,9.90
2018-04-02T06:53:52.507Z,10.30
2018-04-02T06:54:52.525Z,10.00
2018-04-02T06:55:52.629Z,9.70
2018-04-02T06:56:52.564Z,10.70
2018-04-02T06:57:52.582Z,9.60
2018-04-02T06:58:56.112Z,10.30
2018-04-02T06:59:52.623Z,10.40
2018-04-02T07:00:52.631Z,10.20
2018-04-02T07:01:52.659Z,9.80
2018-04-02T07:02:52.666Z,11.00
2018-04-02T07:03:52.687Z,10.50
2018-04-02T07:04:56.113Z,10.30
2018-04-02T07:05:52.723Z,10.40
2018-04-02T07:06:52.740Z,10.00
2018-04-02T07:07:52.757Z,10.10
2018-04-02T07:08:52.774Z,10.50
2018-04-02T07:09:52.804Z,10.30
2018-04-02T07:10:56.170Z,10.10
2018-04-02T07:11:52.828Z,10.20
2018-04-02T07:12:52.856Z,10.30
2018-04-02T07:13:52.866Z,10.20
2018-04-02T07:14:53.509Z,10.10
2018-04-02T07:15:52.906Z,10.10
2018-04-02T07:16:56.126Z,10.50
2018-04-02T07:17:52.940Z,10.60
2018-04-02T07:18:52.956Z,10.70
2018-04-02T07:19:53.026Z,10.80
2018-04-02T07:20:52.998Z,10.90
2018-04-02T07:21:57.119Z,10.80
2018-04-02T07:22:53.026Z,9.70
2018-04-02T07:23:53.045Z,9.00
2018-04-02T07:24:53.078Z,10.50
2018-04-02T07:25:53.089Z,10.20
2018-04-02T07:26:53.098Z,9.90
2018-04-02T07:27:56.129Z,9.70
2018-04-02T07:28:53.143Z,10.00
2018-04-02T07:29:53.160Z,10.30
2018-04-02T07:30:53.180Z,10.90
2018-04-02T07:31:53.199Z,10.10
2018-04-02T07:32:57.165Z,10.30
2018-04-02T07:33:53.223Z,11.20
2018-04-02T07:34:53.241Z,11.40
2018-04-02T07:35:53.268Z,10.20
2018-04-02T07:36:53.334Z,11.00
2018-04-02T07:37:53.298Z,10.50
2018-04-02T07:38:57.140Z,11.00
2018-04-02T07:39:53.338Z,11.30
2018-04-02T07:40:53.349Z,10.60
2018-04-02T07:41:53.381Z,10.40
2018-04-02T07:42:53.382Z,10.90
2018-04-02T07:43:53.401Z,10.50
2018-04-02T07:44:57.241Z,10.90
2018-04-02T07:45:53.447Z,10.10
2018-04-02T07:46:53.453Z,11.10
2018-04-02T07:47:53.482Z,11.20
2018-04-02T07:48:53.494Z,10.80
2018-04-02T07:49:53.512Z,11.40
2018-04-02T07:50:57.283Z,11.70
2018-04-02T07:51:53.543Z,12.20
2018-04-02T07:52:53.572Z,12.50
2018-04-02T07:53:53.578Z,12.80
2018-04-02T07:54:53.596Z,13.70
2018-04-02T07:55:53.613Z,13.30
2018-04-02T07:56:57.354Z,12.80
2018-04-02T07:57:53.672Z,13.00
2018-04-02T07:58:53.667Z,13.60
2018-04-02T07:59:53.693Z,12.50
2018-04-02T08:00:53.705Z,13.30
2018-04-02T08:01:53.727Z,13.80
2018-04-02T08:02:57.708Z,12.10
2018-04-02T08:03:53.765Z,13.10
2018-04-02T08:04:53.772Z,13.40
2018-04-02T08:05:53.802Z,14.00
2018-04-02T08:06:53.820Z,14.40
2018-04-02T08:07:53.836Z,15.50
2018-04-02T08:08:57.653Z,12.20
2018-04-02T08:09:53.871Z,14.60
2018-04-02T08:10:53.879Z,16.20
2018-04-02T08:11:53.901Z,13.60
2018-04-02T08:12:53.924Z,16.10
2018-04-02T08:13:53.935Z,17.70
2018-04-02T08:14:57.960Z,17.80
2018-04-02T08:15:54.089Z,15.20
2018-04-02T08:16:53.987Z,14.20
2018-04-02T08:17:54.083Z,14.60
2018-04-02T08:18:54.033Z,15.50
2018-04-02T08:19:54.038Z,16.50
2018-04-02T08:20:57.418Z,16.20
2018-04-02T08:22:54.100Z,15.00
2018-04-02T08:23:54.111Z,14.90
2018-04-02T08:24:54.129Z,15.80
2018-04-02T08:25:54.147Z,13.60
2018-04-02T08:26:57.430Z,14.30
2018-04-02T08:27:54.192Z,14.40
2018-04-02T08:28:54.209Z,12.40
2018-04-02T08:29:54.221Z,11.80
2018-04-02T08:30:54.237Z,12.40
2018-04-02T08:31:57.457Z,14.80
2018-04-02T08:32:54.269Z,12.50
2018-04-02T08:33:54.290Z,12.70
2018-04-02T08:34:54.306Z,11.50
2018-04-02T08:35:54.334Z,12.30
2018-04-02T08:36:54.343Z,12.90
2018-04-02T08:37:57.566Z,12.10
2018-04-02T08:38:54.531Z,11.80
2018-04-02T08:39:54.395Z,10.20
2018-04-02T08:40:54.420Z,10.90
2018-04-02T08:41:54.434Z,11.70
2018-04-02T08:42:54.457Z,11.80
2018-04-02T08:43:57.573Z,12.30
2018-04-02T08:44:54.483Z,11.70
2018-04-02T08:45:54.511Z,10.30
2018-04-02T08:46:54.545Z,11.20
2018-04-02T08:47:54.551Z,9.10
2018-04-02T08:48:58.570Z,9.90
2018-04-02T08:49:54.589Z,10.20
2018-04-02T08:50:54.593Z,10.40
2018-04-02T08:51:54.617Z,8.20
2018-04-02T08:52:54.656Z,9.00
2018-04-02T08:53:54.656Z,8.20
2018-04-02T08:54:58.622Z,10.10
2018-04-02T08:55:54.692Z,7.80
2018-04-02T08:56:54.700Z,10.00
2018-04-02T08:57:54.715Z,8.20
2018-04-02T08:58:54.805Z,8.10
2018-04-02T08:59:54.753Z,8.60
2018-04-02T09:00:58.584Z,7.60
2018-04-02T09:01:54.798Z,8.10
2018-04-02T09:02:54.817Z,8.20
2018-04-02T09:03:54.823Z,7.60
2018-04-02T09:04:54.923Z,8.80
2018-04-02T09:05:54.862Z,8.70
2018-04-02T09:06:54.929Z,7.80
2018-04-02T09:07:54.899Z,7.80
2018-04-02T09:08:54.924Z,6.50
2018-04-02T09:09:54.932Z,6.60
2018-04-02T09:10:55.006Z,5.60
2018-04-02T09:11:54.968Z,6.00
2018-04-02T09:12:54.996Z,5.70
2018-04-02T09:13:55.009Z,5.80
2018-04-02T09:14:55.022Z,6.50
2018-04-02T09:15:55.037Z,5.70
2018-04-02T09:16:55.085Z,6.30
2018-04-02T09:17:55.081Z,5.50
2018-04-02T09:18:55.144Z,6.00
2018-04-02T09:19:55.109Z,6.30
2018-04-02T09:20:55.134Z,5.70
2018-04-02T09:21:55.146Z,6.30
2018-04-02T09:22:55.172Z,5.60
2018-04-02T09:23:55.244Z,5.60
2018-04-02T09:24:55.202Z,5.70
2018-04-02T09:25:55.220Z,7.00
2018-04-02T09:26:55.236Z,6.30
2018-04-02T09:27:55.270Z,5.80
2018-04-02T09:28:55.322Z,6.20
2018-04-02T09:29:55.293Z,5.80
2018-04-02T09:30:55.321Z,5.60
2018-04-02T09:31:55.324Z,6.40
2018-04-02T09:32:55.352Z,6.20
2018-04-02T09:33:55.361Z,5.10
2018-04-02T09:34:55.400Z,5.70
2018-04-02T09:35:55.401Z,5.30
2018-04-02T09:36:55.417Z,5.70
2018-04-02T09:37:55.438Z,5.40
2018-04-02T09:38:55.474Z,5.70
2018-04-02T09:39:55.474Z,4.60
2018-04-02T09:40:55.490Z,4.90
2018-04-02T09:41:55.508Z,5.10
2018-04-02T09:42:55.531Z,5.20
2018-04-02T09:43:55.545Z,5.50
2018-04-02T09:44:55.570Z,6.00
2018-04-02T09:45:55.583Z,5.30
2018-04-02T09:46:55.599Z,6.30
2018-04-02T09:47:55.617Z,7.00
2018-04-02T09:48:55.636Z,8.00
2018-04-02T09:49:55.653Z,9.20
2018-04-02T09:50:55.672Z,6.60
2018-04-02T09:51:55.697Z,6.90
2018-04-02T09:52:55.718Z,7.10
2018-04-02T09:53:55.734Z,7.70
2018-04-02T09:54:55.796Z,7.00
2018-04-02T09:55:55.775Z,6.50
2018-04-02T09:56:55.784Z,5.90
2018-04-02T09:57:55.797Z,7.30
2018-04-02T09:58:55.825Z,6.10
2018-04-02T09:59:55.906Z,6.00
2018-04-02T10:00:55.856Z,6.20
2018-04-02T10:01:55.872Z,6.50
2018-04-02T10:02:55.889Z,5.90
2018-04-02T10:03:55.906Z,6.20
2018-04-02T10:04:56.047Z,6.70
2018-04-02T10:05:56.009Z,7.10
2018-04-02T10:06:56.010Z,7.00
2018-04-02T10:07:55.984Z,6.50
2018-04-02T10:08:55.997Z,6.00
2018-04-02T10:09:56.080Z,5.80
2018-04-02T10:10:56.034Z,5.70
2018-04-02T10:11:56.051Z,5.80
2018-04-02T10:12:56.068Z,5.80
2018-04-02T10:13:56.088Z,4.60
2018-04-02T10:14:56.112Z,5.20
2018-04-02T10:15:56.135Z,5.70
2018-04-02T10:16:56.163Z,5.10
2018-04-02T10:17:56.204Z,5.10
2018-04-02T10:18:56.180Z,5.00
2018-04-02T10:19:56.207Z,3.70
2018-04-02T10:20:56.221Z,3.70
2018-04-02T10:21:56.236Z,3.20
2018-04-02T10:22:56.253Z,3.00
2018-04-02T10:23:56.514Z,2.70
2018-04-02T10:24:56.291Z,2.50
2018-04-02T10:25:56.312Z,2.50
2018-04-02T10:26:56.338Z,2.40
2018-04-02T10:27:56.365Z,2.40
2018-04-02T10:28:56.370Z,1.90
2018-04-02T10:29:56.446Z,2.20
2018-04-02T10:30:56.414Z,2.20
2018-04-02T10:31:56.432Z,2.00
2018-04-02T10:32:56.442Z,1.90
2018-04-02T10:33:56.472Z,1.70
2018-04-02T10:34:56.517Z,1.70
2018-04-02T10:35:56.537Z,1.70
2018-04-02T10:36:56.573Z,9.60
2018-04-02T10:37:56.539Z,2.10
2018-04-02T10:38:56.560Z,1.80
2018-04-02T10:39:56.588Z,2.60
2018-04-02T10:40:56.611Z,1.80
2018-04-02T10:41:56.624Z,1.70
2018-04-02T10:42:56.638Z,1.40
2018-04-02T10:43:56.666Z,1.30
2018-04-02T10:44:56.686Z,1.00
2018-04-02T10:45:56.803Z,1.00
2018-04-02T10:46:56.714Z,1.00
2018-04-02T10:47:56.785Z,1.20
2018-04-02T10:48:56.764Z,1.30
2018-04-02T10:49:56.777Z,1.30
2018-04-02T10:50:56.794Z,1.30
2018-04-02T10:51:56.815Z,1.00
2018-04-02T10:52:56.837Z,1.30
2018-04-02T10:53:56.922Z,1.50
2018-04-02T10:54:56.878Z,1.10
2018-04-02T10:55:56.898Z,1.30
2018-04-02T10:56:56.928Z,1.20
2018-04-02T10:57:56.939Z,1.10
2018-04-02T10:58:56.959Z,1.20
2018-04-02T10:59:56.978Z,1.10
2018-04-02T11:00:57.069Z,1.20
2018-04-02T11:01:57.016Z,1.50
2018-04-02T11:02:57.037Z,1.20
2018-04-02T11:03:57.055Z,1.50
2018-04-02T11:04:57.077Z,1.30
2018-04-02T11:05:57.097Z,1.20
2018-04-02T11:06:57.246Z,1.30
2018-04-02T11:07:57.137Z,1.30
2018-04-02T11:08:57.161Z,1.40
2018-04-02T11:09:57.181Z,1.50
2018-04-02T11:10:57.203Z,1.30
2018-04-02T11:11:57.233Z,1.30
2018-04-02T11:12:57.314Z,1.50
2018-04-02T11:13:57.264Z,1.10
2018-04-02T11:14:57.283Z,1.20
2018-04-02T11:15:57.315Z,1.30
2018-04-02T11:16:57.328Z,1.40
2018-04-02T11:17:57.359Z,1.20
2018-04-02T11:18:57.378Z,1.40
2018-04-02T11:19:57.400Z,1.40
2018-04-02T11:20:57.417Z,1.10
2018-04-02T11:21:57.445Z,1.20
2018-04-02T11:22:57.459Z,1.30
2018-04-02T11:23:57.486Z,1.30
2018-04-02T11:24:57.552Z,1.20
2018-04-02T11:25:57.523Z,1.50
2018-04-02T11:26:57.551Z,1.70
2018-04-02T11:27:57.565Z,1.70
2018-04-02T11:28:57.631Z,1.90
2018-04-02T11:29:57.610Z,1.70
2018-04-02T11:30:57.631Z,1.70
2018-04-02T11:31:57.666Z,1.70
2018-04-02T11:32:57.673Z,2.10
2018-04-02T11:33:57.700Z,2.00
2018-04-02T11:34:57.716Z,2.00
2018-04-02T11:35:57.740Z,2.00
2018-04-02T11:36:57.764Z,2.20
2018-04-02T11:37:57.785Z,2.20
2018-04-02T11:38:57.804Z,2.20
2018-04-02T11:39:57.824Z,2.00
2018-04-02T11:40:57.859Z,2.10
2018-04-02T11:41:57.908Z,2.00
2018-04-02T11:42:57.968Z,2.20
2018-04-02T11:43:57.913Z,2.10
2018-04-02T11:44:57.938Z,2.30
2018-04-02T11:45:57.960Z,2.10
2018-04-02T11:46:58.001Z,2.30
2018-04-02T11:47:58.030Z,2.60
2018-04-02T11:48:58.032Z,2.10
2018-04-02T11:49:58.057Z,2.00
2018-04-02T11:50:58.066Z,2.00
2018-04-02T11:51:58.087Z,2.20
2018-04-02T11:52:58.113Z,2.50
2018-04-02T11:53:58.132Z,2.50
2018-04-02T11:54:58.159Z,2.40
2018-04-02T11:55:58.179Z,2.30
2018-04-02T11:56:58.201Z,2.70
2018-04-02T11:57:58.221Z,2.50
2018-04-02T11:58:58.244Z,2.50
2018-04-02T11:59:58.266Z,2.50
2018-04-02T12:00:58.338Z,2.20
2018-04-02T12:01:58.320Z,2.60
2018-04-02T12:02:58.328Z,2.20
2018-04-02T12:03:58.429Z,2.80
2018-04-02T12:04:58.413Z,2.40
2018-04-02T12:05:58.403Z,2.30
2018-04-02T12:06:58.429Z,2.70
2018-04-02T12:07:58.453Z,2.20
2018-04-02T12:08:58.477Z,2.60
2018-04-02T12:09:58.487Z,2.20
2018-04-02T12:10:58.509Z,2.50
2018-04-02T12:11:58.532Z,2.50
2018-04-02T12:12:58.606Z,2.70
2018-04-02T12:13:58.575Z,2.40
2018-04-02T12:14:58.601Z,2.30
2018-04-02T12:15:58.617Z,2.60
2018-04-02T12:16:58.649Z,2.10
2018-04-02T12:17:58.663Z,2.30
2018-04-02T12:18:58.739Z,2.50
2018-04-02T12:19:58.708Z,2.30
2018-04-02T12:20:58.748Z,2.10
2018-04-02T12:21:58.762Z,2.60
2018-04-02T12:22:58.797Z,2.40
2018-04-02T12:23:58.796Z,2.60
2018-04-02T12:24:58.870Z,2.30
2018-04-02T12:25:58.852Z,2.40
2018-04-02T12:26:58.874Z,2.60
2018-04-02T12:27:58.887Z,2.60
2018-04-02T12:28:58.951Z,10.00
2018-04-02T12:29:58.931Z,3.00
2018-04-02T12:30:58.955Z,2.50
2018-04-02T12:31:58.991Z,2.80
2018-04-02T12:32:58.997Z,2.30
2018-04-02T12:33:59.027Z,2.40
2018-04-02T12:34:59.041Z,2.40
2018-04-02T12:35:59.072Z,2.80
2018-04-02T12:36:59.143Z,2.70
2018-04-02T12:37:59.115Z,2.40
2018-04-02T12:38:59.130Z,2.80
2018-04-02T12:39:59.159Z,2.70
2018-04-02T12:40:59.175Z,2.60
2018-04-02T12:41:59.197Z,2.80
2018-04-02T12:42:59.218Z,2.60
2018-04-02T12:43:59.253Z,2.40
2018-04-02T12:44:59.274Z,2.80
2018-04-02T12:45:59.285Z,2.70
2018-04-02T12:46:59.316Z,2.70
2018-04-02T12:47:59.331Z,2.60
2018-04-02T12:48:59.356Z,2.80
2018-04-02T12:49:59.372Z,2.40
2018-04-02T12:50:59.393Z,2.70
2018-04-02T12:51:59.418Z,2.30
2018-04-02T12:52:59.440Z,2.90
2018-04-02T12:53:59.462Z,3.20
2018-04-02T12:54:59.484Z,2.50
2018-04-02T12:55:59.515Z,3.00
2018-04-02T12:56:59.538Z,2.70
2018-04-02T12:57:59.550Z,3.10
2018-04-02T12:58:59.627Z,3.10
2018-04-02T12:59:59.592Z,2.70
2018-04-02T13:00:59.665Z,3.10
2018-04-02T13:01:59.650Z,2.80
2018-04-02T13:02:59.655Z,3.00
2018-04-02T13:03:59.692Z,3.20
2018-04-02T13:04:59.699Z,3.30
2018-04-02T13:05:59.725Z,2.90
2018-04-02T13:06:59.793Z,2.90
2018-04-02T13:07:59.767Z,2.90
2018-04-02T13:08:59.785Z,2.80
2018-04-02T13:09:59.807Z,2.90
2018-04-02T13:10:59.831Z,2.70
2018-04-02T13:11:59.856Z,3.20
2018-04-02T13:12:59.871Z,2.90